Time;durP1;ratioP1;P1;durP2;ratioP2;P2;SDS_P1;SDS_P2;PMS_P1;PMS_P2;Temp;Humidity;BMP_temperature;BMP_pressure;BME280_temperature;BME280_humidity;BME280_pressure;Samples;Min_cycle;Max_cycle;Signal;HPM_P1;HPM_P2
2021/10/25 00:00:28;;;;;;;4.38;1.65;;;5.50;99.90;;;;;;4979191;28;20077;-65
2021/10/25 00:02:58;;;;;;;3.28;1.83;;;5.40;99.90;;;;;;4979091;28;20050;-65
2021/10/25 00:05:27;;;;;;;3.60;1.67;;;5.30;99.90;;;;;;4961657;28;20026;-64
2021/10/25 00:07:55;;;;;;;4.10;1.83;;;5.20;99.90;;;;;;4978835;28;20034;-64
2021/10/25 00:10:23;;;;;;;8.23;2.13;;;5.10;99.90;;;;;;4978633;28;20030;-65
2021/10/25 00:12:50;;;;;;;5.43;1.90;;;5.00;99.90;;;;;;4977865;28;20070;-65
2021/10/25 00:15:18;;;;;;;7.88;2.58;;;4.90;99.90;;;;;;4977776;28;20019;-65
2021/10/25 00:17:46;;;;;;;3.55;1.90;;;4.80;99.90;;;;;;4977842;28;20323;-65
2021/10/25 00:20:14;;;;;;;7.43;1.92;;;4.70;99.90;;;;;;4978024;28;20027;-65
2021/10/25 00:22:41;;;;;;;3.05;1.65;;;4.70;99.90;;;;;;4977907;28;20368;-65
2021/10/25 00:25:09;;;;;;;5.80;2.33;;;4.60;99.90;;;;;;4960558;28;20122;-65
2021/10/25 00:27:36;;;;;;;5.65;2.25;;;4.50;99.90;;;;;;4977684;28;20027;-64
2021/10/25 00:30:05;;;;;;;7.03;2.53;;;4.50;99.90;;;;;;4977582;28;20035;-65
2021/10/25 00:32:33;;;;;;;5.78;2.00;;;4.40;99.90;;;;;;4978142;28;20386;-65
2021/10/25 00:35:00;;;;;;;5.93;1.58;;;4.30;99.90;;;;;;4978874;28;20023;-65
2021/10/25 00:37:28;;;;;;;3.20;1.67;;;4.30;99.90;;;;;;4978673;28;20050;-65
2021/10/25 00:39:55;;;;;;;4.80;1.90;;;4.20;99.90;;;;;;4978480;28;20030;-64
2021/10/25 00:42:22;;;;;;;5.97;2.10;;;4.10;99.90;;;;;;4961262;28;20033;-64
2021/10/25 00:44:50;;;;;;;5.28;1.75;;;4.00;99.90;;;;;;4978480;28;20106;-65
2021/10/25 00:47:18;;;;;;;3.05;1.75;;;4.00;99.90;;;;;;4978349;28;20054;-64
2021/10/25 00:49:46;;;;;;;4.97;1.77;;;3.90;99.90;;;;;;4978350;28;20051;-64
2021/10/25 00:52:14;;;;;;;4.95;1.98;;;3.90;99.90;;;;;;4978318;28;20054;-64
2021/10/25 00:54:42;;;;;;;7.25;2.33;;;3.90;99.90;;;;;;4977789;28;20105;-64
2021/10/25 00:57:09;;;;;;;6.35;2.63;;;3.80;99.90;;;;;;4977486;28;20015;-64
2021/10/25 00:59:36;;;;;;;5.93;1.90;;;3.80;99.90;;;;;;4977393;28;20026;-65
2021/10/25 01:02:04;;;;;;;5.60;2.45;;;3.80;99.90;;;;;;4977290;28;20439;-65
2021/10/25 01:04:32;;;;;;;5.82;1.65;;;3.90;99.90;;;;;;4977361;28;20053;-64
2021/10/25 01:07:04;;;;;;;8.25;1.90;;;4.00;99.90;;;;;;4980373;28;20026;-65
2021/10/25 01:09:34;;;;;;;4.97;2.00;;;4.00;99.90;;;;;;4981061;28;20446;-64
2021/10/25 01:12:02;;;;;;;3.67;1.77;;;4.10;99.90;;;;;;4980976;28;20330;-65
2021/10/25 01:14:29;;;;;;;5.82;2.60;;;4.10;99.90;;;;;;4981316;28;20021;-65
2021/10/25 01:16:56;;;;;;;6.75;2.95;;;4.10;99.90;;;;;;4981204;28;20026;-65
2021/10/25 01:19:24;;;;;;;6.35;1.63;;;4.10;99.90;;;;;;4982353;28;20019;-65
2021/10/25 01:21:51;;;;;;;4.80;2.00;;;4.20;99.90;;;;;;4964630;28;20038;-64
2021/10/25 01:24:19;;;;;;;5.80;3.08;;;4.20;99.90;;;;;;4981763;28;20023;-65
2021/10/25 01:26:46;;;;;;;4.70;2.25;;;4.20;99.90;;;;;;4981723;28;20019;-64
2021/10/25 01:29:19;;;;;;;6.95;2.20;;;4.20;99.90;;;;;;4982151;28;20035;-64
2021/10/25 01:31:49;;;;;;;4.40;1.98;;;4.20;99.90;;;;;;4981452;28;20019;-65
2021/10/25 01:34:17;;;;;;;3.33;1.90;;;4.10;99.90;;;;;;4964403;28;20331;-64
2021/10/25 01:36:45;;;;;;;3.83;2.03;;;4.00;99.90;;;;;;4981418;28;20027;-65
2021/10/25 01:39:12;;;;;;;5.95;1.77;;;4.00;99.90;;;;;;4980398;28;20050;-64
2021/10/25 01:41:40;;;;;;;6.28;2.53;;;3.90;99.90;;;;;;4981101;28;20073;-65
2021/10/25 01:44:11;;;;;;;9.75;2.55;;;3.90;99.90;;;;;;4980482;28;20019;-65
2021/10/25 01:46:43;;;;;;;5.88;1.83;;;3.90;99.90;;;;;;4980788;28;20117;-64
2021/10/25 01:49:11;;;;;;;8.90;2.30;;;3.90;99.90;;;;;;4963132;28;20133;-64
2021/10/25 01:51:38;;;;;;;4.65;2.05;;;3.80;99.90;;;;;;4980917;28;20352;-65
2021/10/25 01:54:06;;;;;;;6.82;2.28;;;3.80;99.90;;;;;;4980819;28;20019;-64
2021/10/25 01:56:39;;;;;;;7.38;2.10;;;3.70;99.90;;;;;;4980781;28;20019;-64
2021/10/25 01:59:07;;;;;;;3.63;1.80;;;3.70;99.90;;;;;;4963048;28;20058;-64
2021/10/25 02:01:35;;;;;;;5.93;2.75;;;3.70;99.90;;;;;;4980829;28;20478;-64
2021/10/25 02:04:06;;;;;;;6.57;2.08;;;3.60;99.90;;;;;;4981052;28;20030;-64
2021/10/25 02:06:34;;;;;;;8.32;2.22;;;3.70;99.90;;;;;;4981176;28;20113;-64
2021/10/25 02:09:02;;;;;;;4.65;2.33;;;3.60;99.90;;;;;;4980892;28;20027;-64
2021/10/25 02:11:29;;;;;;;7.90;2.17;;;3.50;99.90;;;;;;4981486;28;20034;-64
2021/10/25 02:13:57;;;;;;;5.88;2.15;;;3.50;99.90;;;;;;4980849;28;20047;-64
2021/10/25 02:16:25;;;;;;;3.97;2.42;;;3.50;99.90;;;;;;4981040;28;20079;-64
2021/10/25 02:18:52;;;;;;;4.13;1.80;;;3.40;99.90;;;;;;4981343;28;20046;-64
2021/10/25 02:21:20;;;;;;;6.28;2.30;;;3.40;99.90;;;;;;4980110;28;20019;-64
2021/10/25 02:23:48;;;;;;;4.75;2.17;;;3.40;99.90;;;;;;4962632;28;20415;-65
2021/10/25 02:26:15;;;;;;;6.35;2.30;;;3.40;99.90;;;;;;4979736;28;20031;-65
2021/10/25 02:28:42;;;;;;;7.78;3.13;;;3.40;99.90;;;;;;4962492;28;20027;-64
2021/10/25 02:31:11;;;;;;;6.55;2.58;;;3.40;99.90;;;;;;4980327;28;20034;-65
2021/10/25 02:33:39;;;;;;;7.13;2.40;;;3.50;99.90;;;;;;4979590;28;20034;-65
2021/10/25 02:36:07;;;;;;;7.30;2.80;;;3.50;99.90;;;;;;4962633;28;20029;-65
2021/10/25 02:38:36;;;;;;;5.70;2.30;;;3.50;99.90;;;;;;4979293;28;20049;-65
2021/10/25 02:41:09;;;;;;;9.50;2.90;;;3.50;99.90;;;;;;4979482;28;20027;-64
2021/10/25 02:43:36;;;;;;;7.03;2.80;;;3.50;99.90;;;;;;4980466;28;20030;-65
2021/10/25 02:46:04;;;;;;;5.95;2.20;;;3.60;99.90;;;;;;4980370;28;20070;-64
2021/10/25 02:48:32;;;;;;;3.42;2.35;;;3.50;99.90;;;;;;4980297;28;20023;-65
2021/10/25 02:50:59;;;;;;;7.00;2.50;;;3.50;99.90;;;;;;4980147;28;20332;-65
2021/10/25 02:53:26;;;;;;;6.88;2.88;;;3.60;99.90;;;;;;4980137;28;20050;-64
2021/10/25 02:55:54;;;;;;;4.82;2.67;;;3.60;99.90;;;;;;4980120;28;20442;-64
2021/10/25 02:58:21;;;;;;;6.07;2.95;;;3.60;99.90;;;;;;4980237;28;20022;-64
2021/10/25 03:00:48;;;;;;;4.18;2.38;;;3.50;99.90;;;;;;4980308;28;20034;-65
2021/10/25 03:03:15;;;;;;;5.63;2.72;;;3.50;99.90;;;;;;4980197;28;20023;-64
2021/10/25 03:05:44;;;;;;;5.18;2.88;;;3.60;99.90;;;;;;4962626;28;20031;-64
2021/10/25 03:08:11;;;;;;;6.97;2.72;;;3.60;99.90;;;;;;4979124;28;20027;-64
2021/10/25 03:10:39;;;;;;;7.93;2.67;;;3.70;99.90;;;;;;4978785;28;20031;-65
2021/10/25 03:13:11;;;;;;;7.70;2.78;;;3.60;99.90;;;;;;4978752;28;20371;-65
2021/10/25 03:15:39;;;;;;;6.95;2.30;;;3.60;99.90;;;;;;4978824;28;20029;-64
2021/10/25 03:18:07;;;;;;;5.20;2.50;;;3.60;99.90;;;;;;4962134;28;20038;-65
2021/10/25 03:20:34;;;;;;;9.30;2.90;;;3.50;99.90;;;;;;4978744;28;20034;-65
2021/10/25 03:23:02;;;;;;;8.23;2.40;;;3.40;99.90;;;;;;4979232;28;20031;-65
2021/10/25 03:25:29;;;;;;;13.82;3.80;;;3.40;99.90;;;;;;4961467;28;20081;-64
2021/10/25 03:27:57;;;;;;;4.63;2.55;;;3.30;99.90;;;;;;4979565;28;20054;-64
2021/10/25 03:30:25;;;;;;;4.10;2.33;;;3.20;99.90;;;;;;4979138;28;20030;-64
2021/10/25 03:32:52;;;;;;;4.57;2.70;;;3.20;99.90;;;;;;4979495;28;20015;-64
2021/10/25 03:35:20;;;;;;;5.68;2.90;;;3.20;99.90;;;;;;4979366;28;20127;-64
2021/10/25 03:37:47;;;;;;;9.77;3.20;;;3.20;99.90;;;;;;4979067;28;20039;-65
2021/10/25 03:40:15;;;;;;;8.38;2.90;;;3.20;99.90;;;;;;4962079;28;20050;-64
2021/10/25 03:42:46;;;;;;;7.90;2.80;;;3.10;99.90;;;;;;4979194;28;20378;-64
2021/10/25 03:45:25;;;;;;;5.32;2.78;;;3.10;99.90;;;;;;4979946;28;20075;-64
2021/10/25 03:50:24;;;;;;;4.90;2.97;;;3.00;99.90;;;;;;4978165;28;20026;-64
2021/10/25 03:55:38;;;;;;;7.57;3.38;;;2.90;99.90;;;;;;4978157;28;20022;-64
2021/10/25 04:30:18;;;;;;;7.15;3.10;;;3.00;99.90;;;;;;4977877;28;20362;-64
2021/10/25 04:32:46;;;;;;;7.60;3.92;;;3.10;99.90;;;;;;4977645;28;20019;-65
2021/10/25 04:35:14;;;;;;;6.35;3.40;;;3.10;99.90;;;;;;4960773;28;20335;-64
2021/10/25 04:37:42;;;;;;;9.60;4.85;;;3.10;99.90;;;;;;4957247;29;20043;-64
2021/10/25 04:40:10;;;;;;;9.73;3.28;;;3.10;99.90;;;;;;4958992;28;20131;-64
2021/10/25 04:42:38;;;;;;;8.40;4.18;;;3.10;99.90;;;;;;4962342;28;20031;-64
2021/10/25 04:45:07;;;;;;;8.38;3.78;;;3.10;99.90;;;;;;4962790;28;20027;-64
2021/10/25 04:47:35;;;;;;;10.52;3.80;;;3.10;99.90;;;;;;4962057;28;20336;-64
2021/10/25 04:50:04;;;;;;;9.70;3.65;;;3.10;99.90;;;;;;4962345;28;20038;-65
2021/10/25 04:52:32;;;;;;;6.32;3.13;;;3.10;99.90;;;;;;4962596;28;20019;-65
2021/10/25 04:54:59;;;;;;;7.13;4.00;;;3.10;99.90;;;;;;4963469;28;20027;-64
2021/10/25 04:57:27;;;;;;;7.50;3.95;;;3.10;99.90;;;;;;4963472;28;20396;-65
2021/10/25 04:59:56;;;;;;;7.05;3.67;;;3.10;99.90;;;;;;4963593;28;20027;-64
2021/10/25 05:02:24;;;;;;;9.55;3.40;;;3.10;99.90;;;;;;4962869;28;20039;-65
2021/10/25 05:04:51;;;;;;;12.80;4.35;;;3.20;99.90;;;;;;4963348;28;20113;-64
2021/10/25 05:07:19;;;;;;;9.63;4.18;;;3.20;99.90;;;;;;4961708;29;20170;-64
2021/10/25 05:09:47;;;;;;;14.88;7.07;;;3.20;99.90;;;;;;4962897;28;20434;-65
2021/10/25 05:12:14;;;;;;;6.65;3.72;;;3.30;99.90;;;;;;4962855;28;20111;-64
2021/10/25 05:14:45;;;;;;;10.75;4.28;;;3.30;99.90;;;;;;4960649;29;20023;-64
2021/10/25 05:17:13;;;;;;;8.70;4.35;;;3.20;99.90;;;;;;4961648;28;20057;-64
2021/10/25 05:19:42;;;;;;;9.48;4.53;;;3.20;99.90;;;;;;4960510;29;20032;-64
2021/10/25 05:22:11;;;;;;;9.65;4.78;;;3.20;99.90;;;;;;4961841;28;20020;-66
2021/10/25 05:24:41;;;;;;;13.27;3.97;;;3.30;99.90;;;;;;4962087;28;20035;-70
2021/10/25 05:27:11;;;;;;;13.70;4.22;;;3.30;99.90;;;;;;4962222;29;20050;-76
2021/10/25 05:29:41;;;;;;;8.35;4.68;;;3.40;99.90;;;;;;4961658;28;20027;-71
2021/10/25 05:32:09;;;;;;;5.68;3.35;;;3.50;99.90;;;;;;4961491;28;20131;-70
2021/10/25 05:34:36;;;;;;;7.72;3.80;;;3.50;99.90;;;;;;4962170;28;20042;-70
2021/10/25 05:37:05;;;;;;;7.25;3.17;;;3.40;99.90;;;;;;4962193;28;20320;-70
2021/10/25 05:39:32;;;;;;;9.75;3.80;;;3.30;99.90;;;;;;4943360;29;20209;-70
2021/10/25 05:42:03;;;;;;;8.68;4.53;;;3.30;99.90;;;;;;4943163;29;20028;-69
2021/10/25 05:44:33;;;;;;;12.30;3.65;;;3.20;99.90;;;;;;4942857;29;20063;-70
2021/10/25 05:47:02;;;;;;;9.25;3.53;;;3.20;99.90;;;;;;4943043;29;20035;-70
2021/10/25 05:49:30;;;;;;;6.25;3.45;;;3.10;99.90;;;;;;4942114;29;20023;-69
2021/10/25 05:51:58;;;;;;;13.43;4.20;;;3.00;99.90;;;;;;4943058;29;20111;-70
2021/10/25 05:54:26;;;;;;;6.72;4.03;;;2.90;99.90;;;;;;4943132;29;20039;-67
2021/10/25 05:56:54;;;;;;;6.32;3.53;;;2.90;99.90;;;;;;4941785;29;20079;-67
2021/10/25 05:59:25;;;;;;;7.32;3.78;;;2.80;99.90;;;;;;4941152;29;20028;-68
2021/10/25 06:02:05;;;;;;;7.53;3.67;;;2.80;99.90;;;;;;4941567;29;20110;-68
2021/10/25 06:04:34;;;;;;;8.40;3.85;;;2.70;99.90;;;;;;4942189;29;20031;-69
2021/10/25 06:07:01;;;;;;;9.63;4.07;;;2.60;99.90;;;;;;4941037;29;20043;-70
2021/10/25 06:09:33;;;;;;;10.40;3.38;;;2.60;99.90;;;;;;4940457;29;20035;-70
2021/10/25 06:12:05;;;;;;;8.77;3.85;;;2.50;99.90;;;;;;4940511;29;20032;-68
2021/10/25 06:14:37;;;;;;;7.72;3.70;;;2.50;99.90;;;;;;4941795;29;20019;-69
2021/10/25 06:19:52;;;;;;;7.13;3.58;;;2.40;99.90;;;;;;4942585;29;20035;-69
2021/10/25 06:22:21;;;;;;;9.23;4.32;;;2.30;99.90;;;;;;4942037;29;20047;-68
2021/10/25 06:24:49;;;;;;;7.05;4.15;;;2.30;99.90;;;;;;4942275;29;20106;-66
2021/10/25 06:27:16;;;;;;;9.35;3.65;;;2.30;99.90;;;;;;4941141;29;20038;-66
2021/10/25 06:29:44;;;;;;;5.82;3.35;;;2.20;99.90;;;;;;4942583;29;20050;-66
2021/10/25 06:32:11;;;;;;;10.60;4.10;;;2.20;99.90;;;;;;4942240;29;20381;-66
2021/10/25 06:34:41;;;;;;;12.55;4.72;;;2.20;99.90;;;;;;4941013;29;20051;-66
2021/10/25 06:37:09;;;;;;;11.18;4.35;;;2.30;99.90;;;;;;4943577;28;20024;-65
2021/10/25 06:39:42;;;;;;;11.35;4.25;;;2.30;99.90;;;;;;4962424;28;20151;-65
2021/10/25 06:42:10;;;;;;;9.82;3.95;;;2.30;99.90;;;;;;4980033;28;20031;-66
2021/10/25 06:44:55;;;;;;;11.43;4.25;;;2.40;99.90;;;;;;4979458;28;20029;-64
2021/10/25 06:47:24;;;;;;;10.23;4.60;;;2.40;99.90;;;;;;4962212;28;20520;-64
2021/10/25 06:49:51;;;;;;;8.50;4.63;;;2.50;99.90;;;;;;4979897;28;20027;-64
2021/10/25 06:52:18;;;;;;;9.13;4.40;;;2.50;99.90;;;;;;4979953;28;20102;-64
2021/10/25 06:54:46;;;;;;;6.65;4.07;;;2.60;99.90;;;;;;4979270;28;20073;-64
2021/10/25 06:57:14;;;;;;;7.40;4.47;;;2.60;99.90;;;;;;4979488;28;20034;-64
2021/10/25 06:59:41;;;;;;;10.48;4.20;;;2.70;99.90;;;;;;4979784;28;20038;-65
2021/10/25 07:02:08;;;;;;;11.90;3.42;;;2.70;99.90;;;;;;4980045;28;20034;-64
2021/10/25 07:04:36;;;;;;;7.43;3.58;;;2.80;99.90;;;;;;4979664;28;20399;-64
2021/10/25 07:07:03;;;;;;;9.10;3.78;;;2.80;99.90;;;;;;4979960;28;20383;-64
2021/10/25 07:09:30;;;;;;;17.05;7.68;;;2.80;99.90;;;;;;4979854;28;20050;-64
2021/10/25 07:11:58;;;;;;;15.38;5.70;;;2.80;99.90;;;;;;4979777;28;20030;-64
2021/10/25 07:14:30;;;;;;;11.38;5.82;;;2.90;99.90;;;;;;4962630;28;20034;-64
2021/10/25 08:06:00;;;;;;;8.80;4.33;;;3.70;99.90;;;;;;4978473;28;20103;-64
2021/10/25 08:11:08;;;;;;;7.47;4.13;;;3.80;99.90;;;;;;4978173;28;20300;-64
2021/10/25 08:13:43;;;;;;;8.38;4.70;;;3.80;99.90;;;;;;4977878;28;20033;-64
2021/10/25 08:16:20;;;;;;;8.27;4.35;;;3.80;99.90;;;;;;4977831;28;20030;-64
2021/10/25 08:19:23;;;;;;;11.77;5.07;;;3.90;99.90;;;;;;4977705;28;20034;-64
2021/10/25 08:21:43;;;;;;;9.90;4.50;;;3.90;99.90;;;;;;4976455;28;20073;-65
2021/10/25 08:24:11;;;;;;;11.52;5.55;;;3.90;99.90;;;;;;4977708;28;20106;-64
2021/10/25 08:26:38;;;;;;;19.70;5.45;;;3.90;99.90;;;;;;4961444;28;20030;-64
2021/10/25 08:29:06;;;;;;;12.73;5.15;;;3.90;99.90;;;;;;4978697;28;20399;-64
2021/10/25 08:31:36;;;;;;;16.63;5.07;;;3.80;99.90;;;;;;4978884;28;20059;-64
2021/10/25 08:34:26;;;;;;;13.98;5.20;;;3.80;99.90;;;;;;4978487;28;20015;-64
2021/10/25 08:39:50;;;;;;;11.02;5.68;;;3.80;99.90;;;;;;4975343;28;20055;-64
2021/10/25 08:42:23;;;;;;;10.90;5.10;;;3.80;99.90;;;;;;4978476;28;20027;-66
2021/10/25 08:45:06;;;;;;;10.02;5.10;;;3.90;99.90;;;;;;4978404;28;20031;-65
2021/10/25 08:47:38;;;;;;;9.93;5.53;;;3.90;99.90;;;;;;4977286;28;20030;-65
2021/10/25 08:50:10;;;;;;;13.00;5.65;;;4.00;99.90;;;;;;4977116;28;20481;-65
2021/10/25 08:52:41;;;;;;;13.52;7.65;;;4.10;99.90;;;;;;4977634;28;20427;-65
2021/10/25 08:55:18;;;;;;;18.48;6.47;;;4.20;99.90;;;;;;4977666;28;20022;-65
2021/10/25 08:57:48;;;;;;;15.52;6.97;;;4.30;99.90;;;;;;4977249;28;20103;-65
2021/10/25 09:00:21;;;;;;;14.32;6.25;;;4.50;99.90;;;;;;4977849;28;20107;-64
2021/10/25 09:03:02;;;;;;;15.77;7.63;;;4.70;99.90;;;;;;4977674;28;20027;-64
2021/10/25 09:05:31;;;;;;;11.98;6.35;;;4.90;99.90;;;;;;4977928;28;20077;-65
2021/10/25 09:08:04;;;;;;;15.75;7.55;;;5.20;99.90;;;;;;4977947;28;20023;-65
2021/10/25 09:10:45;;;;;;;11.07;6.22;;;5.50;99.90;;;;;;4978163;28;20323;-65
2021/10/25 09:13:19;;;;;;;9.98;5.75;;;5.70;99.90;;;;;;4978222;28;20015;-65
2021/10/25 09:15:53;;;;;;;15.10;5.88;;;6.00;99.90;;;;;;4961089;28;20023;-67
2021/10/25 09:18:30;;;;;;;8.57;5.82;;;6.20;99.90;;;;;;4960984;28;20423;-65
2021/10/25 09:21:13;;;;;;;10.40;5.43;;;6.40;99.90;;;;;;4978609;28;20034;-66
2021/10/25 09:23:43;;;;;;;10.90;6.07;;;6.60;99.90;;;;;;4978188;28;20035;-65
2021/10/25 09:26:16;;;;;;;10.00;5.25;;;6.60;99.90;;;;;;4961128;28;20082;-64
2021/10/25 09:28:53;;;;;;;8.43;5.00;;;6.70;99.90;;;;;;4981094;28;20041;-64
2021/10/25 09:31:27;;;;;;;;;;;6.80;99.90;;;;;;4981518;28;20062;-64
2021/10/25 09:33:58;;;;;;;10.35;5.43;;;6.90;99.90;;;;;;4981052;28;20214;-65
2021/10/25 09:36:41;;;;;;;13.00;5.68;;;7.00;99.90;;;;;;4980705;28;20027;-65
2021/10/25 09:39:19;;;;;;;9.45;5.28;;;7.10;99.90;;;;;;4980323;28;20058;-64
2021/10/25 09:50:00;;;;;;;8.23;4.43;;;7.60;99.90;;;;;;4981013;28;20069;-64
2021/10/25 09:52:32;;;;;;;7.38;4.85;;;7.70;99.90;;;;;;4964155;28;20058;-64
2021/10/25 09:55:04;;;;;;;10.07;5.25;;;7.90;99.90;;;;;;4981352;28;20101;-63
2021/10/25 09:57:51;;;;;;;9.30;4.35;;;8.00;99.90;;;;;;4981172;28;20052;-64
2021/10/25 10:00:20;;;;;;;9.93;4.10;;;8.10;99.90;;;;;;4981240;28;20041;-63
2021/10/25 10:02:48;;;;;;;8.95;4.22;;;8.20;99.90;;;;;;4980953;28;20050;-64
2021/10/25 10:05:18;;;;;;;9.10;4.32;;;8.20;99.90;;;;;;4981497;28;20403;-65
2021/10/25 10:07:46;;;;;;;7.82;4.10;;;8.30;99.90;;;;;;4981173;28;20415;-64
2021/10/25 10:10:15;;;;;;;8.68;4.53;;;8.30;99.90;;;;;;4980585;28;20113;-64
2021/10/25 10:12:44;;;;;;;7.40;3.70;;;8.40;99.90;;;;;;4979924;28;20102;-64
2021/10/25 10:15:13;;;;;;;8.05;4.38;;;8.40;99.90;;;;;;4979868;28;20027;-64
2021/10/25 10:17:48;;;;;;;9.52;4.10;;;8.50;99.90;;;;;;4979998;28;20090;-63
2021/10/25 10:20:27;;;;;;;11.05;4.93;;;8.60;99.90;;;;;;4980405;28;20031;-64
2021/10/25 10:22:57;;;;;;;7.97;4.57;;;8.60;99.90;;;;;;4980439;28;20030;-64
2021/10/25 10:25:29;;;;;;;10.40;4.95;;;8.70;99.90;;;;;;4962596;28;20434;-64
2021/10/25 10:28:10;;;;;;;10.55;4.38;;;8.70;99.90;;;;;;4979839;28;20035;-64
2021/10/25 10:30:58;;;;;;;6.80;3.47;;;8.80;99.90;;;;;;4979699;28;20045;-63
2021/10/25 10:33:41;;;;;;;8.05;4.38;;;8.90;99.90;;;;;;4980380;28;20435;-63
2021/10/25 10:36:21;;;;;;;8.27;4.45;;;9.10;99.90;;;;;;4980699;28;20051;-63
2021/10/25 10:39:08;;;;;;;10.77;5.25;;;9.10;99.90;;;;;;4978960;28;20038;-64
2021/10/25 10:41:39;;;;;;;7.95;3.95;;;9.20;99.90;;;;;;4980446;28;20363;-64
2021/10/25 10:44:11;;;;;;;8.80;3.88;;;9.40;99.90;;;;;;4980891;28;20126;-64
2021/10/25 10:47:02;;;;;;;9.88;4.75;;;9.40;99.90;;;;;;4980414;28;20023;-64
2021/10/25 10:49:37;;;;;;;8.25;3.53;;;9.50;99.90;;;;;;4980155;28;20113;-64
2021/10/25 10:52:45;;;;;;;7.40;4.15;;;9.60;99.90;;;;;;4980246;28;20026;-65
2021/10/25 10:55:19;;;;;;;5.00;3.22;;;9.70;99.90;;;;;;4979064;28;20031;-64
2021/10/25 11:00:44;;;;;;;5.25;3.13;;;9.90;99.90;;;;;;4979159;28;20375;-63
2021/10/25 11:03:13;;;;;;;5.40;3.30;;;10.00;99.90;;;;;;4978987;28;20038;-64
2021/10/25 11:05:46;;;;;;;5.68;2.95;;;10.10;99.90;;;;;;4978880;28;20042;-65
2021/10/25 11:08:24;;;;;;;4.20;2.28;;;10.30;99.90;;;;;;4978939;28;20031;-65
2021/10/25 11:11:09;;;;;;;6.63;2.67;;;10.50;99.90;;;;;;4979643;28;20081;-65
2021/10/25 11:13:42;;;;;;;3.85;2.55;;;10.80;99.90;;;;;;4961710;28;20023;-66
2021/10/25 11:18:48;;;;;;;4.35;2.35;;;11.20;99.90;;;;;;4979907;28;20030;-65
2021/10/25 11:21:57;;;;;;;6.10;2.22;;;11.30;99.90;;;;;;4979949;28;20095;-65
2021/10/25 11:24:24;;;;;;;4.05;2.15;;;11.50;99.90;;;;;;4964100;28;20034;-65
2021/10/25 11:26:54;;;;;;;6.38;2.05;;;11.60;99.90;;;;;;4979662;28;20378;-66
2021/10/25 11:29:27;;;;;;;4.28;2.53;;;11.60;99.90;;;;;;4962174;28;20027;-65
2021/10/25 11:31:58;;;;;;;6.20;2.05;;;11.60;99.90;;;;;;4979453;28;20046;-65
2021/10/25 11:34:32;;;;;;;6.13;1.98;;;11.70;99.90;;;;;;4979459;28;20019;-65
2021/10/25 11:37:19;;;;;;;5.60;2.25;;;11.70;99.90;;;;;;4979281;28;20098;-64
2021/10/25 11:39:55;;;;;;;4.53;2.17;;;11.80;99.90;;;;;;4978217;28;20133;-65
2021/10/25 11:42:26;;;;;;;4.70;2.25;;;11.80;99.90;;;;;;4978234;28;20027;-65
2021/10/25 11:44:59;;;;;;;3.13;2.00;;;11.90;99.90;;;;;;4978398;28;20412;-65
2021/10/25 11:47:30;;;;;;;4.80;2.50;;;11.90;99.90;;;;;;4978966;28;20047;-65
2021/10/25 11:50:07;;;;;;;4.47;2.28;;;12.00;99.90;;;;;;4978632;28;20281;-65
2021/10/25 11:52:49;;;;;;;5.38;2.97;;;11.90;99.90;;;;;;4978165;28;20029;-64
2021/10/25 11:55:19;;;;;;;6.75;3.10;;;11.90;99.90;;;;;;4978190;28;20026;-65
2021/10/25 11:57:57;;;;;;;6.65;2.58;;;11.90;99.90;;;;;;4978358;28;20034;-64
2021/10/25 12:00:26;;;;;;;5.05;2.30;;;12.00;99.90;;;;;;4961885;28;20039;-64
2021/10/25 12:03:19;;;;;;;3.58;2.42;;;12.00;99.90;;;;;;4979461;28;20094;-64
2021/10/25 12:05:47;;;;;;;6.63;2.30;;;12.00;99.90;;;;;;4970608;28;20035;-64
2021/10/25 12:08:19;;;;;;;6.18;2.35;;;12.00;99.90;;;;;;4979122;28;20387;-64
2021/10/25 12:10:50;;;;;;;7.47;2.63;;;12.00;99.90;;;;;;4978808;28;20090;-64
2021/10/25 12:13:17;;;;;;;4.97;2.45;;;12.00;99.90;;;;;;4979300;28;20019;-63
2021/10/25 12:15:58;;;;;;;4.32;2.45;;;12.00;99.90;;;;;;4978910;28;20085;-64
2021/10/25 12:18:27;;;;;;;6.47;3.25;;;12.00;99.90;;;;;;4979294;28;20019;-64
2021/10/25 12:20:58;;;;;;;4.32;1.90;;;11.90;99.90;;;;;;4960895;28;20308;-65
2021/10/25 12:23:27;;;;;;;5.65;2.40;;;11.90;99.90;;;;;;4978576;28;20030;-64
2021/10/25 12:26:05;;;;;;;5.85;2.42;;;11.90;99.90;;;;;;4977660;28;20371;-65
2021/10/25 12:28:36;;;;;;;4.43;3.03;;;11.90;99.90;;;;;;4960526;28;20081;-64
2021/10/25 12:31:19;;;;;;;5.95;2.28;;;11.90;99.90;;;;;;4977458;28;20081;-64
2021/10/25 12:33:51;;;;;;;4.45;2.15;;;12.00;99.90;;;;;;4978455;28;20030;-65
2021/10/25 12:36:22;;;;;;;4.78;2.53;;;12.00;99.90;;;;;;4977607;28;20034;-66
2021/10/25 12:38:55;;;;;;;7.97;2.58;;;12.10;99.90;;;;;;4957140;29;20055;-66
2021/10/25 12:41:24;;;;;;;5.50;2.45;;;12.20;99.90;;;;;;4958957;28;20023;-66
2021/10/25 12:44:01;;;;;;;4.22;2.10;;;12.20;99.90;;;;;;4959720;28;20034;-66
2021/10/25 12:46:35;;;;;;;4.43;2.22;;;12.20;99.90;;;;;;4958079;28;20023;-65
2021/10/25 12:49:05;;;;;;;5.10;2.20;;;12.30;99.90;;;;;;4959115;28;20057;-65
2021/10/25 12:51:42;;;;;;;6.10;2.20;;;12.30;99.90;;;;;;4959309;28;20038;-65
2021/10/25 12:54:14;;;;;;;3.83;2.03;;;12.40;99.90;;;;;;4958071;29;20024;-65
2021/10/25 12:56:43;;;;;;;5.82;1.95;;;12.40;99.90;;;;;;4959675;28;20051;-65
2021/10/25 12:59:14;;;;;;;3.33;1.85;;;12.50;99.90;;;;;;4959039;28;20027;-65
2021/10/25 13:01:56;;;;;;;5.88;1.95;;;12.50;99.90;;;;;;4959683;28;20062;-65
2021/10/25 13:04:24;;;;;;;3.17;2.22;;;12.50;99.90;;;;;;4962578;28;20074;-65
2021/10/25 13:06:52;;;;;;;5.38;2.35;;;12.60;99.90;;;;;;4961256;29;20364;-65
2021/10/25 13:09:20;;;;;;;4.07;1.92;;;12.60;99.90;;;;;;4961863;28;20019;-65
2021/10/25 13:11:48;;;;;;;6.18;2.60;;;12.70;99.90;;;;;;4960920;29;20066;-65
2021/10/25 13:14:17;;;;;;;4.20;2.17;;;12.80;99.90;;;;;;4961768;28;20035;-65
2021/10/25 13:16:51;;;;;;;3.50;2.20;;;12.80;99.90;;;;;;4961765;28;20031;-65
2021/10/25 13:19:20;;;;;;;5.47;2.47;;;12.90;99.90;;;;;;4961711;28;20320;-66
2021/10/25 13:21:49;;;;;;;4.25;2.35;;;12.90;99.90;;;;;;4962433;28;20015;-64
2021/10/25 13:24:16;;;;;;;4.95;2.28;;;12.90;99.90;;;;;;4962002;28;20368;-65
2021/10/25 13:26:44;;;;;;;6.10;2.58;;;13.00;99.90;;;;;;4963123;28;20028;-65
2021/10/25 13:29:12;;;;;;;5.10;2.45;;;13.00;99.90;;;;;;4962978;28;20422;-65
2021/10/25 13:31:39;;;;;;;5.68;2.10;;;13.10;99.90;;;;;;4962584;28;20027;-65
2021/10/25 13:34:08;;;;;;;4.97;2.22;;;13.10;99.90;;;;;;4962924;28;20024;-65
2021/10/25 13:36:35;;;;;;;3.88;2.05;;;13.20;99.90;;;;;;4962885;28;20412;-65
2021/10/25 13:39:03;;;;;;;4.90;2.22;;;13.20;99.90;;;;;;4974891;28;20046;-65
2021/10/25 13:41:32;;;;;;;4.88;1.95;;;13.30;99.90;;;;;;4981648;28;20106;-65
2021/10/25 13:43:59;;;;;;;4.03;1.80;;;13.40;99.90;;;;;;4981831;28;20082;-64
2021/10/25 13:46:27;;;;;;;3.95;1.90;;;13.40;99.90;;;;;;4980522;28;20019;-65
2021/10/25 13:48:54;;;;;;;4.22;2.20;;;13.50;99.90;;;;;;4980551;28;20326;-65
2021/10/25 13:51:21;;;;;;;5.15;2.17;;;13.60;99.90;;;;;;4981168;28;20030;-65
2021/10/25 13:53:49;;;;;;;3.47;2.33;;;14.00;99.90;;;;;;4980412;28;20082;-65
2021/10/25 13:56:18;;;;;;;5.50;2.08;;;14.50;98.80;;;;;;4980491;28;20026;-65
2021/10/25 13:58:47;;;;;;;3.40;1.85;;;15.10;98.00;;;;;;4980276;28;20367;-65
2021/10/25 14:01:15;;;;;;;3.10;1.83;;;15.70;96.40;;;;;;4980293;28;20443;-65
2021/10/25 14:03:44;;;;;;;5.22;1.88;;;15.80;96.00;;;;;;4980557;28;20111;-65
2021/10/25 14:06:14;;;;;;;4.15;2.03;;;15.90;95.30;;;;;;4980082;28;20065;-65
2021/10/25 14:08:43;;;;;;;3.83;1.92;;;16.00;95.10;;;;;;4981007;28;20099;-65
2021/10/25 14:11:11;;;;;;;4.10;2.20;;;16.20;94.50;;;;;;4981448;28;20023;-64
2021/10/25 14:16:40;;;;;;;4.25;1.90;;;16.50;93.00;;;;;;4958348;28;20027;-65
2021/10/25 14:19:08;;;;;;;5.65;1.88;;;16.50;92.80;;;;;;4980867;28;20324;-65
2021/10/25 14:21:37;;;;;;;3.70;1.60;;;16.20;92.80;;;;;;4980728;28;20031;-65
2021/10/25 14:24:08;;;;;;;5.55;1.80;;;16.00;93.10;;;;;;4980759;28;20022;-65
2021/10/25 14:26:36;;;;;;;6.60;1.98;;;15.70;93.70;;;;;;4980689;28;20158;-65
2021/10/25 14:29:05;;;;;;;2.78;1.55;;;15.40;93.80;;;;;;4979703;28;20026;-65
2021/10/25 14:31:34;;;;;;;3.80;1.58;;;15.10;94.20;;;;;;4979736;28;20035;-65
2021/10/25 14:34:01;;;;;;;2.95;1.80;;;14.80;94.50;;;;;;4962584;28;20033;-65
2021/10/25 14:36:31;;;;;;;9.73;2.65;;;14.60;95.10;;;;;;4979758;28;20031;-65
2021/10/25 14:41:38;;;;;;;3.80;1.80;;;14.20;96.20;;;;;;4979893;28;20019;-65
2021/10/25 14:44:10;;;;;;;;;;;14.10;96.70;;;;;;4979890;28;20027;-65
2021/10/25 14:46:58;;;;;;;3.70;2.05;;;13.90;97.10;;;;;;4979844;28;19910;-65
2021/10/25 14:54:52;;;;;;;8.93;2.20;;;13.60;97.60;;;;;;4980298;28;20030;-65
2021/10/25 14:57:21;;;;;;;4.78;1.95;;;13.60;98.00;;;;;;4979949;28;20027;-65
2021/10/25 14:59:51;;;;;;;4.25;1.95;;;13.50;98.20;;;;;;4980636;28;20106;-65
2021/10/25 15:02:19;;;;;;;3.55;1.90;;;13.40;98.30;;;;;;4979979;28;20078;-65
2021/10/25 15:04:49;;;;;;;6.03;1.88;;;13.30;98.60;;;;;;4980029;28;20026;-75
2021/10/25 15:07:21;;;;;;;4.78;1.88;;;13.30;98.90;;;;;;4979620;28;20030;-71
2021/10/25 15:09:51;;;;;;;6.65;1.98;;;13.20;99.00;;;;;;4979600;28;20027;-68